Terminal Aerodrome Forecast
Issued by NWS Sioux Falls, SD

Home | Current Version | Previous Version | Graphics & Text | Print | Product List | Glossary Off
Versions: 1 2 3 4 5 6 7 8 9 10 11 12 13 14 15 16 17 18 19 20 21 22 23 24 25 26 27 28 29 30 31 32 33 34

055
FTUS43 KFSD 211137
TAFSUX
TAF
KSUX 211137Z 2112/2212 32004KT 2SM BR OVC003
     FM211400 29005KT 3SM BR OVC005
     FM211600 28004KT P6SM OVC012
     FM211900 VRB03KT P6SM OVC020
     FM212200 25004KT P6SM BKN040
     FM220000 VRB03KT P6SM SCT060
     FM221100 11004KT P6SM VCTS BKN100CB=

USA.gov is the U.S. government's official web portal to all federal, state and local government web resources and services.